Time;durP1;ratioP1;P1;durP2;ratioP2;P2;SDS_P1;SDS_P2;PMS_P1;PMS_P2;Temp;Humidity;BMP_temperature;BMP_pressure;BME280_temperature;BME280_humidity;BME280_pressure;Samples;Min_cycle;Max_cycle;Signal;HPM_P1;HPM_P2
2024/01/22 00:02:29;;;;;;;5.00;2.20;;;;;;;1.02;43.50;97640.19;108737;1273;127382;-79
2024/01/22 00:05:06;;;;;;;6.80;2.60;;;;;;;1.01;43.73;97661.45;108818;1269;26695;-79
2024/01/22 00:07:42;;;;;;;5.40;2.20;;;;;;;1.00;43.27;97652.99;108828;1266;22955;-80
2024/01/22 00:10:13;;;;;;;5.80;3.10;;;;;;;1.02;43.23;97656.19;108805;1250;22514;-79
2024/01/22 00:12:47;;;;;;;6.30;3.10;;;;;;;1.03;43.14;97649.88;108816;1273;22870;-79
2024/01/22 00:15:23;;;;;;;4.70;2.20;;;;;;;1.03;42.67;97650.76;108807;1273;22464;-79
2024/01/22 00:17:56;;;;;;;7.10;2.80;;;;;;;1.00;43.11;97640.46;108802;1272;22546;-79
2024/01/22 00:20:29;;;;;;;5.70;2.50;;;;;;;0.99;43.13;97642.73;108804;1270;22544;-79
2024/01/22 00:23:03;;;;;;;5.40;2.30;;;;;;;0.94;42.75;97636.84;108870;1269;22559;-79
2024/01/22 00:25:34;;;;;;;3.80;1.80;;;;;;;0.91;43.23;97642.64;108813;1266;22545;-79
2024/01/22 00:28:10;;;;;;;4.40;2.30;;;;;;;0.86;43.30;97636.97;108799;1272;22521;-79
2024/01/22 00:30:44;;;;;;;6.50;2.60;;;;;;;0.85;43.16;97647.42;108784;1266;22630;-79
2024/01/22 00:33:15;;;;;;;4.10;1.90;;;;;;;0.86;43.41;97649.58;108823;1269;22514;-79
2024/01/22 00:35:45;;;;;;;4.30;2.20;;;;;;;0.86;43.02;97648.49;108808;1272;22538;-79
2024/01/22 00:38:19;;;;;;;5.40;2.40;;;;;;;0.86;42.72;97636.20;108778;1272;22525;-79
2024/01/22 00:40:52;;;;;;;2.90;1.90;;;;;;;0.87;42.36;97642.98;108799;1269;23921;-79
2024/01/22 00:43:25;;;;;;;3.90;1.60;;;;;;;0.94;42.15;97637.77;108771;1272;22521;-79
2024/01/22 00:46:00;;;;;;;3.30;2.20;;;;;;;0.98;42.10;97638.02;108772;1272;25535;-79
2024/01/22 00:48:35;;;;;;;4.10;2.10;;;;;;;0.96;41.72;97648.77;108823;1272;23194;-79
2024/01/22 00:51:10;;;;;;;6.70;3.10;;;;;;;1.01;41.03;97651.48;108799;1272;23062;-79
2024/01/22 00:53:43;;;;;;;3.20;2.00;;;;;;;1.00;41.26;97657.02;108801;1272;22632;-79
2024/01/22 00:56:18;;;;;;;4.50;2.10;;;;;;;0.91;41.76;97660.36;108796;1270;22539;-79
2024/01/22 00:58:56;;;;;;;5.30;2.40;;;;;;;0.86;42.31;97655.99;108807;1269;22613;-79
2024/01/22 01:01:32;;;;;;;4.60;2.10;;;;;;;0.80;42.20;97655.14;108796;1272;22568;-79
2024/01/22 01:04:04;;;;;;;7.20;3.00;;;;;;;0.78;42.26;97647.62;108829;1269;23330;-79
2024/01/22 01:06:43;;;;;;;5.30;2.20;;;;;;;0.75;42.41;97638.77;108793;1272;23742;-79
2024/01/22 01:09:16;;;;;;;6.30;2.70;;;;;;;0.69;42.52;97640.33;108787;1272;22537;-79
2024/01/22 01:11:50;;;;;;;4.30;2.40;;;;;;;0.65;42.37;97651.81;108806;1272;22658;-79
2024/01/22 01:14:21;;;;;;;4.00;2.70;;;;;;;0.67;42.05;97642.75;108769;1272;22527;-79
2024/01/22 01:16:52;;;;;;;4.80;2.20;;;;;;;0.66;42.29;97667.56;108790;1272;25447;-79
2024/01/22 01:19:24;;;;;;;4.80;2.80;;;;;;;0.70;41.85;97656.60;108792;1272;22625;-79
2024/01/22 01:21:54;;;;;;;5.00;2.50;;;;;;;0.77;41.40;97638.85;108772;1272;26539;-79
2024/01/22 01:24:28;;;;;;;3.50;2.10;;;;;;;0.81;41.65;97650.12;108790;1266;25304;-79
2024/01/22 01:27:01;;;;;;;5.40;2.40;;;;;;;0.83;41.53;97650.05;108802;1272;26576;-79
2024/01/22 01:29:37;;;;;;;3.40;1.80;;;;;;;0.83;41.37;97637.72;108745;1272;24193;-79
2024/01/22 01:32:11;;;;;;;5.50;2.80;;;;;;;0.85;41.30;97652.64;108791;1272;22546;-79
2024/01/22 01:34:44;;;;;;;3.90;1.90;;;;;;;0.88;41.02;97657.45;108792;1272;22638;-79
2024/01/22 01:37:15;;;;;;;5.70;2.50;;;;;;;0.92;40.98;97657.32;108788;1272;22626;-79
2024/01/22 01:39:50;;;;;;;6.60;3.10;;;;;;;0.91;40.54;97644.70;108754;1272;25393;-79
2024/01/22 01:42:24;;;;;;;3.90;2.20;;;;;;;0.87;41.12;97655.80;108787;1272;22543;-79
2024/01/22 01:45:04;;;;;;;6.00;2.90;;;;;;;0.87;40.80;97651.70;108832;1266;22513;-79
2024/01/22 01:47:37;;;;;;;6.30;2.50;;;;;;;0.86;40.78;97657.36;108795;1272;22521;-79
2024/01/22 01:50:15;;;;;;;4.60;2.70;;;;;;;0.88;40.77;97652.59;108788;1272;22664;-79
2024/01/22 01:52:46;;;;;;;6.10;2.40;;;;;;;0.84;40.94;97649.11;108827;1269;22549;-79
2024/01/22 01:55:18;;;;;;;4.80;1.90;;;;;;;0.81;41.15;97656.27;108833;1272;22815;-79
2024/01/22 01:57:52;;;;;;;6.60;2.60;;;;;;;0.83;40.78;97652.90;108775;1269;25298;-79
2024/01/22 02:00:28;;;;;;;5.50;2.10;;;;;;;0.80;41.21;97643.69;108791;1273;23837;-79
2024/01/22 02:03:02;;;;;;;5.90;2.40;;;;;;;0.76;41.20;97650.17;108842;1272;24160;-79
2024/01/22 02:05:36;;;;;;;5.50;2.20;;;;;;;0.76;41.15;97647.73;108827;1272;24418;-79
2024/01/22 02:08:07;;;;;;;4.00;1.90;;;;;;;0.72;41.00;97652.04;108865;1272;22529;-79
2024/01/22 02:10:39;;;;;;;5.20;2.40;;;;;;;0.68;41.36;97656.09;108799;1272;26433;-79
2024/01/22 02:13:14;;;;;;;5.90;2.70;;;;;;;0.61;41.66;97656.26;108767;1266;22553;-79
2024/01/22 02:15:48;;;;;;;4.90;2.40;;;;;;;0.56;41.64;97668.70;108850;1269;22530;-79
2024/01/22 02:18:21;;;;;;;6.00;2.80;;;;;;;0.51;41.89;97670.02;108802;1266;22547;-79
2024/01/22 02:20:52;;;;;;;7.30;2.80;;;;;;;0.46;41.47;97665.92;108807;1272;22513;-79
2024/01/22 02:23:25;;;;;;;5.20;2.60;;;;;;;0.45;41.54;97648.86;108797;1266;22524;-79
2024/01/22 02:25:56;;;;;;;5.20;2.10;;;;;;;0.44;41.72;97657.73;108802;1272;25416;-79
2024/01/22 02:28:31;;;;;;;6.50;2.40;;;;;;;0.45;41.24;97647.81;108810;1272;24441;-79
2024/01/22 02:31:07;;;;;;;4.00;2.10;;;;;;;0.47;41.55;97637.12;108776;1272;24224;-79
2024/01/22 02:33:38;;;;;;;3.20;1.60;;;;;;;0.46;41.53;97640.05;108809;1272;26655;-79
2024/01/22 02:36:17;;;;;;;4.40;2.10;;;;;;;0.50;41.28;97626.70;108800;1269;22522;-79
2024/01/22 02:38:58;;;;;;;5.40;2.00;;;;;;;0.53;40.80;97619.05;108805;1269;22539;-79
2024/01/22 02:41:33;;;;;;;3.40;1.30;;;;;;;0.55;40.71;97621.23;108787;1272;22662;-79
2024/01/22 02:44:07;;;;;;;3.70;2.00;;;;;;;0.58;40.56;97616.70;108809;1272;23832;-79
2024/01/22 02:46:41;;;;;;;2.80;1.20;;;;;;;0.62;40.61;97616.55;108793;1272;22527;-79
2024/01/22 02:49:12;;;;;;;4.30;2.00;;;;;;;0.66;40.14;97595.34;108795;1273;24313;-79
2024/01/22 02:51:48;;;;;;;3.50;1.80;;;;;;;0.69;39.93;97598.05;108809;1272;22518;-79
2024/01/22 02:54:21;;;;;;;2.40;1.40;;;;;;;0.71;39.95;97587.47;108803;1273;24228;-79
2024/01/22 02:56:52;;;;;;;5.10;2.00;;;;;;;0.72;40.04;97580.38;108826;1273;22524;-79
2024/01/22 02:59:24;;;;;;;2.90;1.40;;;;;;;0.72;39.79;97561.58;108759;1273;22531;-79
2024/01/22 03:01:57;;;;;;;4.00;1.80;;;;;;;0.73;39.54;97561.59;108765;1273;26924;-79
2024/01/22 03:04:28;;;;;;;4.90;2.10;;;;;;;0.72;39.84;97542.92;108804;1272;22524;-79
2024/01/22 03:07:03;;;;;;;5.10;2.10;;;;;;;0.72;39.73;97551.39;108802;1272;25288;-79
2024/01/22 03:09:38;;;;;;;3.40;1.40;;;;;;;0.78;39.12;97540.41;108792;1272;22979;-79
2024/01/22 03:12:09;;;;;;;3.40;1.70;;;;;;;0.82;39.18;97535.04;108829;1272;25507;-79
2024/01/22 03:14:40;;;;;;;4.70;1.60;;;;;;;0.85;38.80;97516.33;108798;1269;25500;-79
2024/01/22 03:17:11;;;;;;;1.90;1.20;;;;;;;0.86;38.61;97512.52;108778;1269;22543;-79
2024/01/22 03:19:43;;;;;;;2.80;1.20;;;;;;;0.86;39.22;97507.09;108741;1267;32463;-79
2024/01/22 03:22:16;;;;;;;3.40;1.70;;;;;;;0.85;38.99;97494.15;108846;1267;24209;-79
2024/01/22 03:24:48;;;;;;;4.80;1.80;;;;;;;0.84;39.17;97486.87;108922;1269;22521;-78
2024/01/22 03:27:21;;;;;;;3.40;1.60;;;;;;;0.84;38.71;97490.89;109008;1272;22514;-78
2024/01/22 03:29:57;;;;;;;3.00;1.40;;;;;;;0.86;39.14;97490.70;108884;1272;24276;-79
2024/01/22 03:32:34;;;;;;;2.40;1.30;;;;;;;0.84;39.09;97491.32;108817;1272;23735;-79
2024/01/22 03:35:08;;;;;;;3.60;1.80;;;;;;;0.79;39.02;97483.68;108826;1273;22533;-78
2024/01/22 03:37:43;;;;;;;3.40;1.60;;;;;;;0.79;39.18;97469.79;108798;1265;22570;-78
2024/01/22 03:40:18;;;;;;;5.70;2.50;;;;;;;0.78;39.16;97483.52;108775;1273;25302;-79
2024/01/22 03:42:51;;;;;;;2.90;1.40;;;;;;;0.82;38.79;97465.54;108797;1272;22584;-79
2024/01/22 03:45:22;;;;;;;3.00;1.40;;;;;;;0.85;38.75;97463.44;108786;1253;22513;-79
2024/01/22 03:47:53;;;;;;;2.80;1.60;;;;;;;0.92;38.44;97442.24;108825;1272;22524;-79
2024/01/22 03:50:24;;;;;;;2.20;1.30;;;;;;;0.95;38.15;97446.46;108809;1272;24322;-79
2024/01/22 03:52:55;;;;;;;2.80;1.60;;;;;;;1.00;38.11;97454.77;108791;1272;22557;-79
2024/01/22 03:55:27;;;;;;;3.50;1.60;;;;;;;1.00;38.13;97474.83;108849;1272;23316;-79
2024/01/22 03:57:58;;;;;;;2.20;1.50;;;;;;;0.96;38.27;97456.11;108827;1272;24285;-79
2024/01/22 04:00:29;;;;;;;3.70;2.00;;;;;;;0.97;38.19;97461.89;108795;1272;22557;-79
2024/01/22 04:03:02;;;;;;;3.40;1.60;;;;;;;0.97;38.57;97464.26;108824;1273;26584;-79
2024/01/22 04:05:37;;;;;;;3.40;1.50;;;;;;;0.92;38.42;97477.38;108815;1269;24012;-79
2024/01/22 04:08:09;;;;;;;3.30;1.50;;;;;;;0.94;38.23;97482.16;108779;1269;25323;-79
2024/01/22 04:10:40;;;;;;;4.10;1.40;;;;;;;0.97;38.15;97467.15;108759;1272;25604;-79
2024/01/22 04:13:21;;;;;;;3.40;1.80;;;;;;;0.94;38.56;97467.23;108793;1273;23864;-79
2024/01/22 04:15:57;;;;;;;1.90;1.40;;;;;;;0.92;38.38;97464.37;108863;1266;22535;-79
2024/01/22 04:18:30;;;;;;;;;;;;;;;0.91;38.60;97464.98;108802;1273;24232;-79
2024/01/22 04:21:01;;;;;;;3.90;1.60;;;;;;;0.91;38.67;97472.65;108790;1272;23932;-77
2024/01/22 04:23:34;;;;;;;5.20;1.50;;;;;;;0.90;38.68;97464.41;108795;1272;22539;-79
2024/01/22 04:26:06;;;;;;;2.90;1.90;;;;;;;0.93;38.72;97457.91;108833;1272;24215;-79
2024/01/22 04:28:40;;;;;;;4.00;1.80;;;;;;;0.88;38.61;97453.97;108818;1272;22600;-78
2024/01/22 04:31:13;;;;;;;4.10;1.80;;;;;;;0.81;38.91;97451.04;108816;1273;22543;-79
2024/01/22 04:33:48;;;;;;;3.90;1.90;;;;;;;0.75;38.92;97462.19;108825;1269;22517;-79
2024/01/22 04:36:22;;;;;;;5.80;2.00;;;;;;;0.69;38.90;97463.40;108802;1273;24163;-79
2024/01/22 04:38:53;;;;;;;6.90;2.50;;;;;;;0.64;39.06;97444.39;108812;1269;22536;-79
2024/01/22 04:41:24;;;;;;;3.00;1.40;;;;;;;0.61;39.27;97455.98;108747;1272;22527;-77
2024/01/22 04:43:55;;;;;;;3.40;1.80;;;;;;;0.59;39.44;97438.96;108805;1265;25313;-78
2024/01/22 04:46:26;;;;;;;3.30;1.90;;;;;;;0.59;39.32;97438.40;108794;1272;22528;-77
2024/01/22 04:48:57;;;;;;;3.70;1.90;;;;;;;0.63;39.57;97439.38;108823;1273;22468;-77
2024/01/22 04:51:33;;;;;;;3.70;1.80;;;;;;;0.65;39.34;97439.89;108788;1269;22653;-78
2024/01/22 04:54:08;;;;;;;9.50;2.00;;;;;;;0.69;39.11;97437.50;108816;1271;25261;-78
2024/01/22 04:56:44;;;;;;;4.60;2.10;;;;;;;0.73;39.10;97438.98;108779;1266;22702;-78
2024/01/22 04:59:20;;;;;;;3.40;1.40;;;;;;;0.75;39.10;97441.64;108847;1266;22540;-77
2024/01/22 05:01:56;;;;;;;6.20;1.70;;;;;;;0.75;39.10;97435.17;108796;1272;22595;-77
2024/01/22 05:04:27;;;;;;;1.90;1.00;;;;;;;0.71;39.49;97443.38;108801;1273;22529;-77
2024/01/22 05:07:03;;;;;;;4.70;2.30;;;;;;;0.68;39.57;97448.21;108821;1272;22537;-77
2024/01/22 05:09:36;;;;;;;4.10;1.70;;;;;;;0.80;38.75;97448.64;108791;1273;25416;-77
2024/01/22 05:12:18;;;;;;;3.20;1.40;;;;;;;0.97;38.38;97456.04;108793;1272;24221;-77
2024/01/22 05:14:49;;;;;;;2.50;1.60;;;;;;;1.11;38.36;97443.98;108783;1265;22625;-78
2024/01/22 05:17:21;;;;;;;2.90;0.90;;;;;;;1.25;37.71;97447.19;108787;1272;24182;-77
2024/01/22 05:19:57;;;;;;;4.10;1.60;;;;;;;1.49;36.99;97449.96;108812;1269;22644;-77
2024/01/22 05:22:28;;;;;;;4.00;1.70;;;;;;;1.56;37.00;97452.62;108768;1273;22577;-77
2024/01/22 05:24:59;;;;;;;3.90;1.90;;;;;;;1.55;36.78;97445.94;108810;1269;23879;-77
2024/01/22 05:27:35;;;;;;;3.10;1.60;;;;;;;1.50;36.69;97450.96;108833;1273;22532;-78
2024/01/22 05:30:08;;;;;;;2.20;1.40;;;;;;;1.33;36.89;97443.90;108738;1266;22517;-77
2024/01/22 05:32:40;;;;;;;1.90;1.30;;;;;;;1.28;36.87;97462.52;108839;1273;25498;-78
2024/01/22 05:35:16;;;;;;;3.90;1.70;;;;;;;1.29;36.56;97453.08;108789;1265;23625;-78
2024/01/22 05:37:49;;;;;;;2.90;1.20;;;;;;;1.23;36.93;97461.09;108801;1257;22594;-78
2024/01/22 05:40:20;;;;;;;4.50;1.70;;;;;;;1.15;36.97;97484.17;108816;1273;22532;-78
2024/01/22 05:42:58;;;;;;;3.70;2.10;;;;;;;1.09;37.17;97489.09;108837;1269;22544;-78
2024/01/22 05:45:36;;;;;;;2.40;1.60;;;;;;;1.00;37.63;97479.52;108803;1272;22628;-78
2024/01/22 05:48:09;;;;;;;2.80;1.40;;;;;;;0.93;37.70;97476.23;108802;1272;25436;-78
2024/01/22 05:50:43;;;;;;;2.50;1.60;;;;;;;0.90;38.02;97481.40;108790;1272;22572;-78
2024/01/22 05:53:15;;;;;;;3.50;2.00;;;;;;;0.87;37.73;97479.55;108805;1272;22517;-78
2024/01/22 05:55:48;;;;;;;4.40;1.80;;;;;;;0.84;38.07;97475.27;108857;1272;22538;-78
2024/01/22 05:58:20;;;;;;;5.10;2.40;;;;;;;0.76;38.58;97485.20;108795;1272;22518;-78
2024/01/22 06:00:51;;;;;;;5.90;2.50;;;;;;;0.70;37.94;97488.77;108818;1272;22696;-78
2024/01/22 06:03:22;;;;;;;4.00;2.00;;;;;;;0.65;38.59;97482.98;108802;1273;24339;-78
2024/01/22 06:05:55;;;;;;;7.10;2.40;;;;;;;0.57;38.75;97481.84;108829;1272;23889;-78
2024/01/22 06:08:28;;;;;;;3.40;2.10;;;;;;;0.51;38.91;97482.70;108773;1269;23955;-78
2024/01/22 06:11:00;;;;;;;7.50;2.70;;;;;;;0.47;38.95;97475.91;108765;1272;22523;-78
2024/01/22 06:13:39;;;;;;;7.20;2.40;;;;;;;0.44;39.21;97480.86;108798;1270;22530;-78
2024/01/22 06:16:11;;;;;;;7.60;2.70;;;;;;;0.37;39.47;97479.70;108781;1272;22648;-78
2024/01/22 06:18:45;;;;;;;4.80;2.10;;;;;;;0.33;39.85;97482.31;108773;1273;22689;-78
2024/01/22 06:21:21;;;;;;;3.90;2.10;;;;;;;0.28;39.72;97465.28;108794;1273;22532;-77
2024/01/22 06:23:52;;;;;;;5.80;3.00;;;;;;;0.25;40.01;97460.68;108779;1272;25122;-77
2024/01/22 06:26:29;;;;;;;5.60;2.50;;;;;;;0.21;40.34;97464.23;108771;1272;23014;-77
2024/01/22 06:29:08;;;;;;;6.10;2.90;;;;;;;0.18;40.53;97471.92;108788;1272;22525;-77
2024/01/22 06:31:41;;;;;;;4.60;2.10;;;;;;;0.18;40.34;97464.86;108778;1273;22551;-78
2024/01/22 06:34:12;;;;;;;4.30;2.30;;;;;;;0.27;40.03;97469.97;108763;1270;22518;-77
2024/01/22 06:36:43;;;;;;;4.20;2.50;;;;;;;0.42;39.53;97466.88;108784;1269;22537;-77
2024/01/22 06:39:15;;;;;;;6.40;2.20;;;;;;;0.49;39.39;97461.19;108781;1272;23299;-77
2024/01/22 06:41:46;;;;;;;3.80;2.50;;;;;;;0.57;39.17;97470.83;108788;1272;22521;-77
2024/01/22 06:44:17;;;;;;;4.00;2.20;;;;;;;0.63;38.95;97458.09;108814;1272;26423;-78
2024/01/22 06:46:51;;;;;;;4.70;2.10;;;;;;;0.65;38.89;97458.84;108806;1270;22548;-78
2024/01/22 06:49:22;;;;;;;5.30;2.30;;;;;;;0.71;38.83;97459.88;108769;1272;22525;-77
2024/01/22 06:51:53;;;;;;;4.00;2.60;;;;;;;0.77;38.75;97449.66;108858;1272;22532;-77
2024/01/22 06:54:31;;;;;;;2.60;1.80;;;;;;;0.91;38.31;97457.79;108792;1272;22649;-78
2024/01/22 06:57:02;;;;;;;5.00;2.10;;;;;;;1.04;38.54;97439.27;108813;1273;22562;-78
2024/01/22 06:59:34;;;;;;;5.70;2.60;;;;;;;1.09;38.44;97440.67;108770;1273;28552;-78
2024/01/22 07:02:10;;;;;;;4.90;2.20;;;;;;;1.15;38.31;97431.91;108752;1273;25461;-79
2024/01/22 07:04:43;;;;;;;3.10;2.20;;;;;;;1.28;38.25;97428.00;108710;1270;22790;-79
2024/01/22 07:07:14;;;;;;;6.50;3.00;;;;;;;1.24;37.52;97432.20;108740;1267;22530;-79
2024/01/22 07:09:45;;;;;;;7.40;2.30;;;;;;;1.10;37.78;97417.55;108709;1267;24082;-79
2024/01/22 07:12:17;;;;;;;5.60;2.20;;;;;;;0.99;38.11;97414.64;108816;1267;22530;-79
2024/01/22 07:14:51;;;;;;;7.30;2.90;;;;;;;1.05;38.27;97417.90;108755;1266;22535;-78
2024/01/22 07:17:22;;;;;;;3.00;1.80;;;;;;;1.05;37.99;97408.27;108767;1273;22993;-79
2024/01/22 07:19:56;;;;;;;4.30;2.30;;;;;;;1.01;38.08;97400.51;108795;1266;23017;-80
2024/01/22 07:22:27;;;;;;;3.00;1.80;;;;;;;0.99;38.17;97413.11;108795;1251;22542;-79
2024/01/22 07:25:04;;;;;;;4.20;2.30;;;;;;;0.97;38.01;97395.94;108793;1250;22522;-79
2024/01/22 07:27:38;;;;;;;4.60;2.00;;;;;;;1.02;38.23;97398.94;108803;1273;25287;-79
2024/01/22 07:30:12;;;;;;;3.40;2.10;;;;;;;1.14;37.72;97388.27;108743;1272;23254;-79
2024/01/22 07:32:47;;;;;;;3.00;1.80;;;;;;;1.34;37.27;97382.34;108803;1272;23124;-79
2024/01/22 07:35:24;;;;;;;3.40;1.90;;;;;;;1.77;36.73;97377.34;108806;1270;22620;-80
2024/01/22 07:37:59;;;;;;;3.60;2.20;;;;;;;2.29;35.88;97362.57;108828;1270;22573;-79
2024/01/22 07:40:34;;;;;;;3.30;1.70;;;;;;;2.60;35.27;97371.91;108779;1272;25325;-79
2024/01/22 07:43:11;;;;;;;3.80;2.20;;;;;;;2.84;34.42;97372.11;108808;1273;22557;-79
2024/01/22 07:45:45;;;;;;;2.70;1.70;;;;;;;3.06;34.27;97368.39;108800;1273;22521;-79
2024/01/22 07:48:16;;;;;;;3.50;1.70;;;;;;;3.33;32.20;97350.05;108784;1249;22566;-79
2024/01/22 07:50:50;;;;;;;2.70;1.40;;;;;;;3.68;31.99;97365.95;108771;1254;24184;-79
2024/01/22 07:53:20;;;;;;;1.90;1.20;;;;;;;3.91;30.48;97342.96;108847;1272;22560;-79
2024/01/22 07:55:54;;;;;;;3.60;1.80;;;;;;;3.97;29.67;97362.64;108733;1270;24019;-79
2024/01/22 07:58:32;;;;;;;2.40;1.30;;;;;;;3.95;29.79;97352.01;108796;1272;22563;-79
2024/01/22 08:01:06;;;;;;;5.00;2.20;;;;;;;3.82;30.61;97339.70;108784;1267;22518;-79
2024/01/22 08:03:38;;;;;;;3.60;1.90;;;;;;;3.74;30.32;97323.32;108762;1273;22546;-79
2024/01/22 08:06:09;;;;;;;5.20;2.40;;;;;;;3.73;30.46;97338.66;108801;1265;24212;-79
2024/01/22 08:08:42;;;;;;;3.20;2.20;;;;;;;3.84;30.92;97326.61;108888;1273;25293;-79
2024/01/22 08:11:20;;;;;;;4.80;2.50;;;;;;;4.00;31.35;97319.42;108785;1271;22524;-78
2024/01/22 08:13:54;;;;;;;4.60;2.30;;;;;;;4.21;31.88;97310.80;108808;1270;24040;-79
2024/01/22 08:16:27;;;;;;;4.30;2.30;;;;;;;4.31;31.26;97309.48;108802;1267;23897;-79
2024/01/22 08:19:03;;;;;;;3.20;1.70;;;;;;;4.28;30.61;97304.32;108859;1267;25424;-80
2024/01/22 08:21:36;;;;;;;4.70;2.20;;;;;;;4.30;31.00;97293.07;108801;1266;22527;-79
2024/01/22 08:24:08;;;;;;;2.60;1.70;;;;;;;4.31;30.98;97283.65;108776;1266;22632;-79
2024/01/22 08:26:42;;;;;;;2.40;1.40;;;;;;;4.26;29.15;97274.19;108888;1267;24196;-78
2024/01/22 08:29:13;;;;;;;4.20;2.10;;;;;;;4.32;29.28;97278.19;108899;1273;22515;-78
2024/01/22 08:31:44;;;;;;;4.30;2.00;;;;;;;4.38;29.66;97271.73;108851;1273;22555;-79
2024/01/22 08:34:21;;;;;;;4.40;2.30;;;;;;;4.37;29.53;97271.34;108811;1272;22524;-80
2024/01/22 08:36:52;;;;;;;4.30;2.00;;;;;;;4.44;29.51;97298.44;108837;1273;22521;-79
2024/01/22 08:39:25;;;;;;;4.10;2.30;;;;;;;4.57;30.13;97283.55;108789;1272;22673;-80
2024/01/22 08:42:01;;;;;;;5.30;2.40;;;;;;;4.68;29.47;97273.39;108812;1273;24404;-80
2024/01/22 08:44:32;;;;;;;4.40;2.20;;;;;;;4.68;29.66;97278.80;108772;1273;22579;-79
2024/01/22 08:47:05;;;;;;;4.00;2.20;;;;;;;4.58;29.30;97260.23;108729;1267;22601;-79
2024/01/22 08:49:38;;;;;;;3.40;2.10;;;;;;;4.53;29.79;97275.38;108748;1267;22573;-78
2024/01/22 08:52:09;;;;;;;3.70;2.00;;;;;;;4.45;29.67;97260.49;108753;1266;22530;-78
2024/01/22 08:54:43;;;;;;;6.20;2.50;;;;;;;4.21;29.72;97273.52;108819;1273;23755;-78
2024/01/22 08:57:19;;;;;;;4.00;2.10;;;;;;;4.27;30.20;97255.94;108783;1273;22543;-79
2024/01/22 08:59:50;;;;;;;4.10;2.10;;;;;;;4.36;30.11;97257.79;108763;1270;23763;-79
2024/01/22 09:02:26;;;;;;;4.40;2.30;;;;;;;4.45;29.97;97251.44;108762;1267;22585;-79
2024/01/22 09:04:58;;;;;;;5.70;2.50;;;;;;;4.48;29.81;97253.38;108808;1266;22543;-79
2024/01/22 09:07:32;;;;;;;4.20;2.10;;;;;;;4.44;30.08;97237.16;108808;1273;22525;-80
2024/01/22 09:10:11;;;;;;;7.00;2.10;;;;;;;4.48;29.76;97234.19;108809;1266;26576;-80
2024/01/22 09:12:42;;;;;;;7.80;2.60;;;;;;;4.49;29.94;97242.50;108779;1266;23058;-79
2024/01/22 09:15:17;;;;;;;7.70;3.50;;;;;;;4.37;30.38;97226.96;108776;1265;23973;-78
2024/01/22 09:17:54;;;;;;;6.20;2.60;;;;;;;4.27;30.42;97226.34;108800;1272;24458;-79
2024/01/22 09:20:30;;;;;;;5.80;3.10;;;;;;;4.28;30.57;97222.73;108749;1267;26327;-78
2024/01/22 09:23:03;;;;;;;4.90;2.70;;;;;;;4.17;30.99;97226.41;108820;1266;22522;-79
2024/01/22 09:25:40;;;;;;;5.40;3.20;;;;;;;4.11;30.73;97228.23;108792;1272;22524;-80
2024/01/22 09:28:15;;;;;;;4.90;2.80;;;;;;;4.08;30.99;97238.16;108778;1268;24199;-80
2024/01/22 09:30:49;;;;;;;5.60;2.90;;;;;;;4.03;31.32;97227.45;108792;1272;22587;-80
2024/01/22 09:33:23;;;;;;;3.50;2.20;;;;;;;3.99;31.17;97221.69;108830;1267;23910;-80
2024/01/22 09:36:01;;;;;;;5.10;2.80;;;;;;;4.01;31.35;97204.30;108753;1266;26269;-80
2024/01/22 09:38:39;;;;;;;4.20;2.80;;;;;;;4.05;31.32;97206.42;108731;1266;22657;-81
2024/01/22 09:41:15;;;;;;;4.30;2.00;;;;;;;4.14;30.99;97206.83;108769;1269;22577;-80
2024/01/22 09:43:47;;;;;;;6.00;2.80;;;;;;;4.28;30.65;97197.54;108766;1269;22520;-80
2024/01/22 09:46:19;;;;;;;4.60;2.40;;;;;;;4.35;30.92;97186.48;108789;1272;25433;-80
2024/01/22 09:48:53;;;;;;;2.90;1.90;;;;;;;4.47;30.82;97166.06;108757;1262;26679;-80
2024/01/22 09:51:27;;;;;;;5.80;2.50;;;;;;;4.59;29.90;97166.33;108804;1272;25427;-80
2024/01/22 09:54:06;;;;;;;5.50;2.40;;;;;;;4.69;29.33;97150.95;108787;1272;24339;-81
2024/01/22 09:56:39;;;;;;;5.60;2.60;;;;;;;4.77;30.09;97167.81;108746;1272;25963;-80
2024/01/22 09:59:24;;;;;;;5.70;2.40;;;;;;;4.76;30.42;97135.53;108980;1272;23004;-81
2024/01/22 10:01:58;;;;;;;7.40;2.40;;;;;;;4.68;30.33;97144.25;108730;1265;22725;-82
2024/01/22 10:04:36;;;;;;;5.90;2.20;;;;;;;4.70;30.31;97146.55;108532;1266;23916;-81
2024/01/22 10:07:12;;;;;;;4.50;2.10;;;;;;;4.94;30.08;97141.88;108449;1266;23058;-80
2024/01/22 10:09:48;;;;;;;4.20;2.30;;;;;;;5.08;30.15;97125.73;108341;1266;22534;-80
2024/01/22 10:12:19;;;;;;;3.90;2.50;;;;;;;5.20;29.72;97120.33;108635;1266;23483;-80
2024/01/22 10:14:52;;;;;;;6.30;2.70;;;;;;;5.18;29.58;97104.23;108753;1266;23872;-81
2024/01/22 10:17:33;;;;;;;4.80;2.20;;;;;;;5.06;29.56;97118.61;108797;1267;22677;-81
2024/01/22 10:20:13;;;;;;;6.30;2.70;;;;;;;4.91;29.67;97118.08;108724;1265;23045;-81
2024/01/22 10:22:44;;;;;;;4.10;2.60;;;;;;;4.84;30.50;97098.84;108681;1266;22543;-81
2024/01/22 10:25:25;;;;;;;5.50;2.30;;;;;;;4.85;30.35;97096.92;108773;1273;22520;-81
2024/01/22 10:28:12;;;;;;;4.20;2.20;;;;;;;4.87;30.47;97097.73;108777;1267;24180;-81
2024/01/22 10:30:46;;;;;;;6.80;3.30;;;;;;;4.94;30.47;97091.28;108775;1269;22527;-81
2024/01/22 10:33:20;;;;;;;5.90;2.90;;;;;;;4.94;30.32;97087.36;108804;1251;22525;-81
2024/01/22 10:35:57;;;;;;;4.40;2.50;;;;;;;5.00;30.19;97087.79;108833;1272;22521;-81
2024/01/22 10:38:33;;;;;;;1.90;1.40;;;;;;;5.21;30.53;97070.70;108767;1267;22578;-80
2024/01/22 10:41:21;;;;;;;2.20;1.20;;;;;;;5.54;29.27;97071.25;108760;1266;22597;-81
2024/01/22 10:43:54;;;;;;;2.00;1.40;;;;;;;5.96;28.21;97063.36;108832;1272;24036;-81
2024/01/22 10:46:30;;;;;;;4.30;2.00;;;;;;;6.31;26.63;97063.26;108825;1266;25398;-81
2024/01/22 10:49:02;;;;;;;2.00;1.20;;;;;;;6.49;26.48;97063.89;108783;1273;22524;-81
2024/01/22 10:51:38;;;;;;;1.70;1.10;;;;;;;6.56;26.94;97052.20;108816;1270;22524;-80
2024/01/22 10:54:12;;;;;;;3.30;1.10;;;;;;;6.63;26.62;97063.54;108780;1272;22716;-80
2024/01/22 10:56:54;;;;;;;2.00;1.40;;;;;;;6.71;25.19;97044.68;108775;1272;26736;-81
2024/01/22 10:59:27;;;;;;;4.90;2.80;;;;;;;6.71;26.62;97044.89;108792;1273;25507;-81
2024/01/22 11:02:03;;;;;;;3.90;1.80;;;;;;;6.42;27.60;97043.36;108791;1273;25030;-81
2024/01/22 11:04:44;;;;;;;5.10;2.70;;;;;;;6.31;27.80;97028.23;108781;1272;24215;-81
2024/01/22 11:07:27;;;;;;;2.40;1.70;;;;;;;6.27;27.12;97036.92;108815;1269;23917;-81
2024/01/22 11:10:07;;;;;;;2.90;1.80;;;;;;;6.38;27.39;97031.70;108861;1272;24015;-81
2024/01/22 11:12:49;;;;;;;2.70;1.20;;;;;;;6.41;26.62;97020.17;108761;1269;25463;-82
2024/01/22 11:15:21;;;;;;;2.20;1.10;;;;;;;6.75;25.95;97013.05;108774;1267;22534;-82
2024/01/22 11:17:55;;;;;;;2.50;1.30;;;;;;;6.92;26.02;97015.92;109183;1269;22696;-82
2024/01/22 11:20:27;;;;;;;1.80;1.00;;;;;;;7.01;24.51;96980.65;109086;1250;22740;-82
2024/01/22 11:23:08;;;;;;;2.10;1.00;;;;;;;7.09;24.09;96994.35;109139;1267;22586;-83
2024/01/22 11:25:39;;;;;;;2.60;1.20;;;;;;;7.18;23.55;97000.20;109168;1265;22559;-81
2024/01/22 11:28:15;;;;;;;2.50;1.20;;;;;;;7.19;24.37;96992.58;109139;1266;22545;-82
2024/01/22 11:30:49;;;;;;;2.20;1.30;;;;;;;7.19;23.65;96994.77;109130;1273;24276;-82
2024/01/22 11:33:35;;;;;;;2.50;1.20;;;;;;;7.21;24.03;96989.32;108787;1267;26022;-82
2024/01/22 11:36:08;;;;;;;2.20;1.30;;;;;;;7.16;24.45;96974.96;108816;1269;22600;-82
2024/01/22 11:38:57;;;;;;;2.40;1.00;;;;;;;7.06;24.60;96982.67;108757;1273;22588;-82
2024/01/22 11:41:40;;;;;;;2.90;1.20;;;;;;;7.08;23.16;96954.85;108829;1272;25201;-82
2024/01/22 11:44:15;;;;;;;1.70;0.90;;;;;;;7.18;22.74;96968.34;108798;1267;25291;-82
2024/01/22 11:46:47;;;;;;;3.30;1.20;;;;;;;7.24;22.16;96954.34;108796;1273;25488;-81
2024/01/22 11:49:21;;;;;;;3.30;1.30;;;;;;;7.31;21.41;96961.05;108761;1272;24155;-82
2024/01/22 11:51:52;;;;;;;1.40;1.00;;;;;;;7.36;21.46;96943.80;108783;1250;22548;-82
2024/01/22 11:54:29;;;;;;;4.60;0.90;;;;;;;7.37;21.21;96932.48;108817;1262;22519;-82
2024/01/22 11:57:07;;;;;;;3.80;1.30;;;;;;;7.48;20.88;96912.38;108809;1272;22543;-82
2024/01/22 11:59:39;;;;;;;2.00;0.90;;;;;;;7.55;20.59;96951.89;108773;1266;22929;-82
2024/01/22 12:02:15;;;;;;;2.00;1.20;;;;;;;7.63;20.94;96927.65;108667;1267;157637;-82
2024/01/22 12:04:47;;;;;;;1.90;1.30;;;;;;;7.70;20.13;96906.11;108806;1266;22546;-82
2024/01/22 12:07:17;;;;;;;1.40;0.90;;;;;;;7.75;19.70;96929.96;108812;1270;24241;-84